sensor_id;sensor_type;location;lat;lon;timestamp;P1;durP1;ratioP1;P2;durP2;ratioP2
20022;SDS011;10172;42.054;24.546;2023-04-29T00:01:21;5.25;;;1.90;;
20022;SDS011;10172;42.054;24.546;2023-04-29T00:03:46;3.05;;;1.73;;
20022;SDS011;10172;42.054;24.546;2023-04-29T00:06:13;5.13;;;2.38;;
20022;SDS011;10172;42.054;24.546;2023-04-29T00:08:39;2.60;;;2.10;;
20022;SDS011;10172;42.054;24.546;2023-04-29T00:11:05;2.65;;;2.10;;
20022;SDS011;10172;42.054;24.546;2023-04-29T00:13:30;3.72;;;2.30;;
20022;SDS011;10172;42.054;24.546;2023-04-29T00:15:56;3.83;;;2.35;;
20022;SDS011;10172;42.054;24.546;2023-04-29T00:18:21;4.40;;;1.83;;
20022;SDS011;10172;42.054;24.546;2023-04-29T00:20:47;4.72;;;2.20;;
20022;SDS011;10172;42.054;24.546;2023-04-29T00:23:12;3.45;;;2.03;;
20022;SDS011;10172;42.054;24.546;2023-04-29T00:25:38;5.50;;;2.60;;
20022;SDS011;10172;42.054;24.546;2023-04-29T00:28:04;5.40;;;2.35;;
20022;SDS011;10172;42.054;24.546;2023-04-29T00:30:30;3.17;;;2.13;;
20022;SDS011;10172;42.054;24.546;2023-04-29T00:32:57;4.05;;;1.80;;
20022;SDS011;10172;42.054;24.546;2023-04-29T00:35:22;6.15;;;3.55;;
20022;SDS011;10172;42.054;24.546;2023-04-29T00:37:48;3.40;;;2.28;;
20022;SDS011;10172;42.054;24.546;2023-04-29T00:40:14;3.20;;;2.10;;
20022;SDS011;10172;42.054;24.546;2023-04-29T00:42:40;2.80;;;1.63;;
20022;SDS011;10172;42.054;24.546;2023-04-29T00:45:06;2.70;;;2.22;;
20022;SDS011;10172;42.054;24.546;2023-04-29T00:47:32;5.68;;;2.55;;
20022;SDS011;10172;42.054;24.546;2023-04-29T00:49:58;3.85;;;2.35;;
20022;SDS011;10172;42.054;24.546;2023-04-29T00:52:24;9.90;;;2.75;;
20022;SDS011;10172;42.054;24.546;2023-04-29T00:54:51;4.32;;;2.17;;
20022;SDS011;10172;42.054;24.546;2023-04-29T00:57:18;4.60;;;2.40;;
20022;SDS011;10172;42.054;24.546;2023-04-29T00:59:44;3.88;;;2.53;;
20022;SDS011;10172;42.054;24.546;2023-04-29T01:02:10;3.65;;;2.53;;
20022;SDS011;10172;42.054;24.546;2023-04-29T01:04:36;3.08;;;2.10;;
20022;SDS011;10172;42.054;24.546;2023-04-29T01:10:00;3.60;;;2.25;;
20022;SDS011;10172;42.054;24.546;2023-04-29T01:17:59;3.75;;;2.33;;
20022;SDS011;10172;42.054;24.546;2023-04-29T01:20:30;2.25;;;1.90;;
20022;SDS011;10172;42.054;24.546;2023-04-29T01:22:57;4.28;;;2.20;;
20022;SDS011;10172;42.054;24.546;2023-04-29T01:25:23;3.00;;;2.10;;
20022;SDS011;10172;42.054;24.546;2023-04-29T01:36:11;3.25;;;2.28;;
20022;SDS011;10172;42.054;24.546;2023-04-29T01:41:17;5.05;;;3.15;;
20022;SDS011;10172;42.054;24.546;2023-04-29T01:43:49;3.10;;;1.85;;
20022;SDS011;10172;42.054;24.546;2023-04-29T01:46:16;2.65;;;1.92;;
20022;SDS011;10172;42.054;24.546;2023-04-29T01:48:43;2.85;;;2.40;;
20022;SDS011;10172;42.054;24.546;2023-04-29T01:51:09;2.30;;;2.10;;
20022;SDS011;10172;42.054;24.546;2023-04-29T01:53:35;4.03;;;2.10;;
20022;SDS011;10172;42.054;24.546;2023-04-29T01:56:00;3.78;;;2.08;;
20022;SDS011;10172;42.054;24.546;2023-04-29T01:58:26;4.07;;;2.53;;
20022;SDS011;10172;42.054;24.546;2023-04-29T02:00:52;5.03;;;2.63;;
20022;SDS011;10172;42.054;24.546;2023-04-29T02:03:19;3.08;;;2.08;;
20022;SDS011;10172;42.054;24.546;2023-04-29T02:05:44;4.75;;;2.30;;
20022;SDS011;10172;42.054;24.546;2023-04-29T02:08:10;3.67;;;2.30;;
20022;SDS011;10172;42.054;24.546;2023-04-29T02:10:35;5.70;;;2.70;;
20022;SDS011;10172;42.054;24.546;2023-04-29T02:13:01;2.80;;;1.95;;
20022;SDS011;10172;42.054;24.546;2023-04-29T02:15:27;4.22;;;2.22;;
20022;SDS011;10172;42.054;24.546;2023-04-29T02:17:53;5.80;;;3.05;;
20022;SDS011;10172;42.054;24.546;2023-04-29T02:20:18;3.63;;;1.85;;
20022;SDS011;10172;42.054;24.546;2023-04-29T02:22:44;3.10;;;2.13;;
20022;SDS011;10172;42.054;24.546;2023-04-29T02:25:10;4.03;;;2.42;;
20022;SDS011;10172;42.054;24.546;2023-04-29T02:27:35;3.70;;;2.25;;
20022;SDS011;10172;42.054;24.546;2023-04-29T02:30:01;3.20;;;2.15;;
20022;SDS011;10172;42.054;24.546;2023-04-29T02:32:28;3.08;;;2.10;;
20022;SDS011;10172;42.054;24.546;2023-04-29T02:34:54;3.75;;;2.88;;
20022;SDS011;10172;42.054;24.546;2023-04-29T02:37:20;4.32;;;2.53;;
20022;SDS011;10172;42.054;24.546;2023-04-29T02:39:45;2.50;;;2.05;;
20022;SDS011;10172;42.054;24.546;2023-04-29T02:42:11;3.72;;;2.40;;
20022;SDS011;10172;42.054;24.546;2023-04-29T02:44:37;5.40;;;2.53;;
20022;SDS011;10172;42.054;24.546;2023-04-29T02:47:02;6.28;;;2.10;;
20022;SDS011;10172;42.054;24.546;2023-04-29T02:49:28;5.40;;;2.65;;
20022;SDS011;10172;42.054;24.546;2023-04-29T02:51:53;2.95;;;2.35;;
20022;SDS011;10172;42.054;24.546;2023-04-29T02:54:19;3.97;;;2.03;;
20022;SDS011;10172;42.054;24.546;2023-04-29T02:56:45;5.47;;;2.60;;
20022;SDS011;10172;42.054;24.546;2023-04-29T02:59:11;3.25;;;2.25;;
20022;SDS011;10172;42.054;24.546;2023-04-29T03:01:36;2.65;;;1.92;;
20022;SDS011;10172;42.054;24.546;2023-04-29T03:04:02;2.78;;;2.17;;
20022;SDS011;10172;42.054;24.546;2023-04-29T03:06:28;6.65;;;2.00;;
20022;SDS011;10172;42.054;24.546;2023-04-29T03:08:55;3.95;;;2.90;;
20022;SDS011;10172;42.054;24.546;2023-04-29T03:11:20;3.50;;;2.20;;
20022;SDS011;10172;42.054;24.546;2023-04-29T03:13:48;3.15;;;2.50;;
20022;SDS011;10172;42.054;24.546;2023-04-29T03:16:14;2.78;;;1.92;;
20022;SDS011;10172;42.054;24.546;2023-04-29T03:18:41;4.22;;;2.20;;
20022;SDS011;10172;42.054;24.546;2023-04-29T03:21:07;6.38;;;2.53;;
20022;SDS011;10172;42.054;24.546;2023-04-29T03:23:32;4.95;;;2.38;;
20022;SDS011;10172;42.054;24.546;2023-04-29T03:25:58;5.45;;;2.35;;
20022;SDS011;10172;42.054;24.546;2023-04-29T03:28:24;7.45;;;2.50;;
20022;SDS011;10172;42.054;24.546;2023-04-29T03:30:50;4.53;;;2.63;;
20022;SDS011;10172;42.054;24.546;2023-04-29T03:33:15;2.65;;;2.20;;
20022;SDS011;10172;42.054;24.546;2023-04-29T03:35:41;4.63;;;2.92;;
20022;SDS011;10172;42.054;24.546;2023-04-29T03:38:06;4.40;;;2.42;;
20022;SDS011;10172;42.054;24.546;2023-04-29T03:40:32;4.70;;;2.50;;
20022;SDS011;10172;42.054;24.546;2023-04-29T03:42:57;3.83;;;2.78;;
20022;SDS011;10172;42.054;24.546;2023-04-29T03:45:24;6.50;;;2.28;;
20022;SDS011;10172;42.054;24.546;2023-04-29T03:47:50;5.07;;;2.42;;
20022;SDS011;10172;42.054;24.546;2023-04-29T03:50:17;3.60;;;2.20;;
20022;SDS011;10172;42.054;24.546;2023-04-29T03:52:42;4.65;;;2.33;;
20022;SDS011;10172;42.054;24.546;2023-04-29T03:55:08;2.97;;;2.28;;
20022;SDS011;10172;42.054;24.546;2023-04-29T03:57:34;5.90;;;2.55;;
20022;SDS011;10172;42.054;24.546;2023-04-29T03:59:59;5.15;;;2.55;;
20022;SDS011;10172;42.054;24.546;2023-04-29T04:02:25;3.92;;;2.42;;
20022;SDS011;10172;42.054;24.546;2023-04-29T04:04:50;4.85;;;2.22;;
20022;SDS011;10172;42.054;24.546;2023-04-29T04:07:16;3.45;;;2.55;;
20022;SDS011;10172;42.054;24.546;2023-04-29T04:09:41;2.55;;;1.98;;
20022;SDS011;10172;42.054;24.546;2023-04-29T04:12:07;2.30;;;1.88;;
20022;SDS011;10172;42.054;24.546;2023-04-29T04:14:32;2.88;;;2.05;;
20022;SDS011;10172;42.054;24.546;2023-04-29T04:16:58;4.53;;;2.05;;
20022;SDS011;10172;42.054;24.546;2023-04-29T04:19:24;3.58;;;2.42;;
20022;SDS011;10172;42.054;24.546;2023-04-29T04:21:51;3.03;;;2.00;;
20022;SDS011;10172;42.054;24.546;2023-04-29T04:24:16;4.00;;;2.17;;
20022;SDS011;10172;42.054;24.546;2023-04-29T04:26:41;2.28;;;2.00;;
20022;SDS011;10172;42.054;24.546;2023-04-29T04:29:07;5.82;;;3.42;;
20022;SDS011;10172;42.054;24.546;2023-04-29T04:31:32;7.72;;;3.28;;
20022;SDS011;10172;42.054;24.546;2023-04-29T04:33:58;3.20;;;2.40;;
20022;SDS011;10172;42.054;24.546;2023-04-29T04:36:24;3.33;;;2.22;;
20022;SDS011;10172;42.054;24.546;2023-04-29T04:38:49;3.63;;;2.45;;
20022;SDS011;10172;42.054;24.546;2023-04-29T04:41:15;3.78;;;2.50;;
20022;SDS011;10172;42.054;24.546;2023-04-29T04:43:40;2.67;;;2.13;;
20022;SDS011;10172;42.054;24.546;2023-04-29T04:46:12;3.35;;;1.92;;
20022;SDS011;10172;42.054;24.546;2023-04-29T04:48:39;2.40;;;1.92;;
20022;SDS011;10172;42.054;24.546;2023-04-29T04:51:12;2.42;;;1.83;;
20022;SDS011;10172;42.054;24.546;2023-04-29T04:53:38;4.95;;;2.33;;
20022;SDS011;10172;42.054;24.546;2023-04-29T04:56:05;3.92;;;2.10;;
20022;SDS011;10172;42.054;24.546;2023-04-29T04:58:31;5.93;;;2.30;;
20022;SDS011;10172;42.054;24.546;2023-04-29T05:00:57;4.72;;;2.10;;
20022;SDS011;10172;42.054;24.546;2023-04-29T05:03:24;3.22;;;2.05;;
20022;SDS011;10172;42.054;24.546;2023-04-29T05:05:53;3.47;;;2.00;;
20022;SDS011;10172;42.054;24.546;2023-04-29T05:08:19;3.03;;;2.30;;
20022;SDS011;10172;42.054;24.546;2023-04-29T05:10:44;3.40;;;2.20;;
20022;SDS011;10172;42.054;24.546;2023-04-29T05:13:10;2.92;;;2.00;;
20022;SDS011;10172;42.054;24.546;2023-04-29T05:15:35;5.40;;;2.35;;
20022;SDS011;10172;42.054;24.546;2023-04-29T05:18:01;3.20;;;2.10;;
20022;SDS011;10172;42.054;24.546;2023-04-29T05:20:26;3.78;;;2.10;;
20022;SDS011;10172;42.054;24.546;2023-04-29T05:22:52;4.05;;;2.65;;
20022;SDS011;10172;42.054;24.546;2023-04-29T05:25:17;4.80;;;2.15;;
20022;SDS011;10172;42.054;24.546;2023-04-29T05:27:43;2.92;;;2.08;;
20022;SDS011;10172;42.054;24.546;2023-04-29T05:30:08;3.00;;;1.88;;
20022;SDS011;10172;42.054;24.546;2023-04-29T05:32:34;5.22;;;2.17;;
20022;SDS011;10172;42.054;24.546;2023-04-29T05:34:59;3.83;;;2.08;;
20022;SDS011;10172;42.054;24.546;2023-04-29T05:37:25;3.88;;;2.40;;
20022;SDS011;10172;42.054;24.546;2023-04-29T05:39:55;20.17;;;3.25;;
20022;SDS011;10172;42.054;24.546;2023-04-29T05:42:20;24.65;;;4.65;;
20022;SDS011;10172;42.054;24.546;2023-04-29T05:44:46;8.40;;;2.10;;
20022;SDS011;10172;42.054;24.546;2023-04-29T05:47:11;4.43;;;2.72;;
20022;SDS011;10172;42.054;24.546;2023-04-29T05:49:37;8.68;;;3.58;;
20022;SDS011;10172;42.054;24.546;2023-04-29T05:52:03;4.93;;;2.08;;
20022;SDS011;10172;42.054;24.546;2023-04-29T05:54:30;3.80;;;2.00;;
20022;SDS011;10172;42.054;24.546;2023-04-29T05:56:57;2.33;;;1.65;;
20022;SDS011;10172;42.054;24.546;2023-04-29T05:59:23;2.10;;;1.77;;
20022;SDS011;10172;42.054;24.546;2023-04-29T06:01:49;5.15;;;1.60;;
20022;SDS011;10172;42.054;24.546;2023-04-29T06:04:15;6.82;;;1.90;;
20022;SDS011;10172;42.054;24.546;2023-04-29T06:06:40;3.38;;;1.90;;
20022;SDS011;10172;42.054;24.546;2023-04-29T06:09:06;3.65;;;1.73;;
20022;SDS011;10172;42.054;24.546;2023-04-29T06:11:32;6.10;;;1.88;;
20022;SDS011;10172;42.054;24.546;2023-04-29T06:13:58;5.60;;;2.53;;
20022;SDS011;10172;42.054;24.546;2023-04-29T06:16:23;2.95;;;1.75;;
20022;SDS011;10172;42.054;24.546;2023-04-29T06:18:49;3.70;;;1.77;;
20022;SDS011;10172;42.054;24.546;2023-04-29T06:21:15;7.53;;;2.15;;
20022;SDS011;10172;42.054;24.546;2023-04-29T06:23:40;4.35;;;1.95;;
20022;SDS011;10172;42.054;24.546;2023-04-29T06:26:05;1.80;;;1.55;;
20022;SDS011;10172;42.054;24.546;2023-04-29T06:28:31;6.35;;;1.90;;
20022;SDS011;10172;42.054;24.546;2023-04-29T06:30:56;3.63;;;2.25;;
20022;SDS011;10172;42.054;24.546;2023-04-29T06:33:22;4.30;;;1.63;;
20022;SDS011;10172;42.054;24.546;2023-04-29T06:35:47;4.60;;;1.83;;
20022;SDS011;10172;42.054;24.546;2023-04-29T06:38:13;5.43;;;1.88;;
20022;SDS011;10172;42.054;24.546;2023-04-29T06:40:38;3.80;;;1.90;;
20022;SDS011;10172;42.054;24.546;2023-04-29T06:43:04;4.60;;;1.90;;
20022;SDS011;10172;42.054;24.546;2023-04-29T06:45:29;4.18;;;1.80;;
20022;SDS011;10172;42.054;24.546;2023-04-29T06:47:55;4.72;;;1.90;;
20022;SDS011;10172;42.054;24.546;2023-04-29T06:50:21;2.30;;;1.77;;
20022;SDS011;10172;42.054;24.546;2023-04-29T06:52:46;3.20;;;1.75;;
20022;SDS011;10172;42.054;24.546;2023-04-29T06:55:13;1.77;;;1.52;;
20022;SDS011;10172;42.054;24.546;2023-04-29T06:57:38;3.70;;;1.80;;
20022;SDS011;10172;42.054;24.546;2023-04-29T07:00:04;5.30;;;2.03;;
20022;SDS011;10172;42.054;24.546;2023-04-29T07:02:30;4.03;;;2.25;;
20022;SDS011;10172;42.054;24.546;2023-04-29T07:04:55;3.92;;;2.38;;
20022;SDS011;10172;42.054;24.546;2023-04-29T07:07:21;2.20;;;1.67;;
20022;SDS011;10172;42.054;24.546;2023-04-29T07:09:47;4.28;;;1.90;;
20022;SDS011;10172;42.054;24.546;2023-04-29T07:12:15;3.25;;;2.05;;
20022;SDS011;10172;42.054;24.546;2023-04-29T07:14:41;6.45;;;2.40;;
20022;SDS011;10172;42.054;24.546;2023-04-29T07:17:07;5.22;;;1.77;;
20022;SDS011;10172;42.054;24.546;2023-04-29T07:19:32;5.55;;;2.65;;
20022;SDS011;10172;42.054;24.546;2023-04-29T07:21:57;5.43;;;2.40;;
20022;SDS011;10172;42.054;24.546;2023-04-29T07:24:23;4.25;;;2.00;;
20022;SDS011;10172;42.054;24.546;2023-04-29T07:26:49;3.20;;;1.60;;
20022;SDS011;10172;42.054;24.546;2023-04-29T07:29:14;4.20;;;2.25;;
20022;SDS011;10172;42.054;24.546;2023-04-29T07:31:40;7.90;;;2.80;;
20022;SDS011;10172;42.054;24.546;2023-04-29T07:34:06;4.28;;;2.03;;
20022;SDS011;10172;42.054;24.546;2023-04-29T07:36:31;4.80;;;2.38;;
20022;SDS011;10172;42.054;24.546;2023-04-29T07:38:57;4.38;;;2.00;;
20022;SDS011;10172;42.054;24.546;2023-04-29T07:41:23;9.35;;;2.47;;
20022;SDS011;10172;42.054;24.546;2023-04-29T07:43:48;3.63;;;2.00;;
20022;SDS011;10172;42.054;24.546;2023-04-29T07:46:14;4.97;;;2.28;;
20022;SDS011;10172;42.054;24.546;2023-04-29T07:48:41;2.22;;;1.70;;
20022;SDS011;10172;42.054;24.546;2023-04-29T07:51:11;6.32;;;2.75;;
20022;SDS011;10172;42.054;24.546;2023-04-29T07:53:38;6.28;;;2.10;;
20022;SDS011;10172;42.054;24.546;2023-04-29T07:56:04;3.40;;;1.90;;
20022;SDS011;10172;42.054;24.546;2023-04-29T07:58:31;8.07;;;2.47;;
20022;SDS011;10172;42.054;24.546;2023-04-29T08:00:56;4.13;;;1.90;;
20022;SDS011;10172;42.054;24.546;2023-04-29T08:03:28;3.47;;;1.77;;
20022;SDS011;10172;42.054;24.546;2023-04-29T08:05:54;3.40;;;1.70;;
20022;SDS011;10172;42.054;24.546;2023-04-29T08:08:25;2.63;;;1.83;;
20022;SDS011;10172;42.054;24.546;2023-04-29T08:10:51;2.97;;;1.83;;
20022;SDS011;10172;42.054;24.546;2023-04-29T08:13:16;3.72;;;2.03;;
20022;SDS011;10172;42.054;24.546;2023-04-29T08:15:41;2.97;;;1.90;;
20022;SDS011;10172;42.054;24.546;2023-04-29T08:18:07;2.85;;;1.70;;
20022;SDS011;10172;42.054;24.546;2023-04-29T08:20:32;4.90;;;2.03;;
20022;SDS011;10172;42.054;24.546;2023-04-29T08:22:58;4.65;;;1.60;;
20022;SDS011;10172;42.054;24.546;2023-04-29T08:25:24;3.85;;;1.77;;
20022;SDS011;10172;42.054;24.546;2023-04-29T08:27:51;5.05;;;1.98;;
20022;SDS011;10172;42.054;24.546;2023-04-29T08:30:16;3.20;;;2.00;;
20022;SDS011;10172;42.054;24.546;2023-04-29T08:32:42;4.10;;;2.13;;
20022;SDS011;10172;42.054;24.546;2023-04-29T08:35:08;2.78;;;1.70;;
20022;SDS011;10172;42.054;24.546;2023-04-29T08:37:33;4.32;;;2.35;;
20022;SDS011;10172;42.054;24.546;2023-04-29T08:39:59;4.35;;;2.10;;
20022;SDS011;10172;42.054;24.546;2023-04-29T08:42:34;4.03;;;2.00;;
20022;SDS011;10172;42.054;24.546;2023-04-29T08:45:01;3.47;;;2.17;;
20022;SDS011;10172;42.054;24.546;2023-04-29T08:47:31;2.83;;;1.90;;
20022;SDS011;10172;42.054;24.546;2023-04-29T08:50:04;6.45;;;1.40;;
20022;SDS011;10172;42.054;24.546;2023-04-29T08:52:31;2.90;;;1.73;;
20022;SDS011;10172;42.054;24.546;2023-04-29T08:54:59;5.15;;;1.88;;
20022;SDS011;10172;42.054;24.546;2023-04-29T08:57:26;4.70;;;2.22;;
20022;SDS011;10172;42.054;24.546;2023-04-29T08:59:53;5.03;;;2.50;;
20022;SDS011;10172;42.054;24.546;2023-04-29T09:02:19;3.72;;;1.80;;
20022;SDS011;10172;42.054;24.546;2023-04-29T09:04:54;2.38;;;1.60;;
20022;SDS011;10172;42.054;24.546;2023-04-29T09:07:33;6.38;;;2.63;;
20022;SDS011;10172;42.054;24.546;2023-04-29T09:09:59;2.88;;;1.90;;
20022;SDS011;10172;42.054;24.546;2023-04-29T09:12:28;5.68;;;1.80;;
20022;SDS011;10172;42.054;24.546;2023-04-29T09:14:54;6.90;;;2.55;;
20022;SDS011;10172;42.054;24.546;2023-04-29T09:17:36;2.95;;;1.60;;
20022;SDS011;10172;42.054;24.546;2023-04-29T09:20:27;2.80;;;1.63;;
20022;SDS011;10172;42.054;24.546;2023-04-29T09:22:56;4.15;;;1.95;;
20022;SDS011;10172;42.054;24.546;2023-04-29T09:25:22;2.80;;;1.92;;
20022;SDS011;10172;42.054;24.546;2023-04-29T09:27:47;5.47;;;2.00;;
20022;SDS011;10172;42.054;24.546;2023-04-29T09:30:13;3.83;;;1.85;;
20022;SDS011;10172;42.054;24.546;2023-04-29T09:32:40;4.35;;;2.20;;
20022;SDS011;10172;42.054;24.546;2023-04-29T09:35:26;2.13;;;1.60;;
20022;SDS011;10172;42.054;24.546;2023-04-29T09:37:52;4.25;;;2.08;;
20022;SDS011;10172;42.054;24.546;2023-04-29T09:40:32;5.28;;;1.85;;
20022;SDS011;10172;42.054;24.546;2023-04-29T09:42:58;2.58;;;1.85;;
20022;SDS011;10172;42.054;24.546;2023-04-29T09:45:35;4.68;;;1.70;;
20022;SDS011;10172;42.054;24.546;2023-04-29T09:48:06;5.43;;;1.85;;
20022;SDS011;10172;42.054;24.546;2023-04-29T09:50:33;2.30;;;1.95;;
20022;SDS011;10172;42.054;24.546;2023-04-29T09:53:02;2.67;;;1.83;;
20022;SDS011;10172;42.054;24.546;2023-04-29T09:55:30;4.05;;;2.00;;
20022;SDS011;10172;42.054;24.546;2023-04-29T09:57:56;4.90;;;2.80;;
20022;SDS011;10172;42.054;24.546;2023-04-29T10:00:22;4.18;;;2.20;;
20022;SDS011;10172;42.054;24.546;2023-04-29T10:02:49;3.95;;;1.90;;
20022;SDS011;10172;42.054;24.546;2023-04-29T10:05:18;3.35;;;1.95;;
20022;SDS011;10172;42.054;24.546;2023-04-29T10:07:45;5.72;;;1.75;;
20022;SDS011;10172;42.054;24.546;2023-04-29T10:10:14;2.83;;;1.65;;
20022;SDS011;10172;42.054;24.546;2023-04-29T10:12:41;9.05;;;1.60;;
20022;SDS011;10172;42.054;24.546;2023-04-29T10:20:34;2.85;;;1.60;;
20022;SDS011;10172;42.054;24.546;2023-04-29T10:23:05;4.20;;;1.58;;
20022;SDS011;10172;42.054;24.546;2023-04-29T10:25:31;2.05;;;1.25;;
20022;SDS011;10172;42.054;24.546;2023-04-29T10:28:00;3.55;;;1.20;;
20022;SDS011;10172;42.054;24.546;2023-04-29T10:30:28;3.40;;;1.23;;
20022;SDS011;10172;42.054;24.546;2023-04-29T10:32:55;2.25;;;0.90;;
20022;SDS011;10172;42.054;24.546;2023-04-29T10:35:24;1.83;;;1.00;;
20022;SDS011;10172;42.054;24.546;2023-04-29T10:37:49;2.85;;;1.35;;
20022;SDS011;10172;42.054;24.546;2023-04-29T10:40:35;2.03;;;0.93;;
20022;SDS011;10172;42.054;24.546;2023-04-29T10:43:07;4.20;;;1.02;;
20022;SDS011;10172;42.054;24.546;2023-04-29T10:45:33;1.60;;;0.90;;
20022;SDS011;10172;42.054;24.546;2023-04-29T10:50:31;2.65;;;1.38;;
20022;SDS011;10172;42.054;24.546;2023-04-29T10:53:00;1.90;;;1.27;;
20022;SDS011;10172;42.054;24.546;2023-04-29T10:55:26;1.85;;;1.05;;
20022;SDS011;10172;42.054;24.546;2023-04-29T10:57:52;2.55;;;1.40;;
20022;SDS011;10172;42.054;24.546;2023-04-29T11:00:27;3.05;;;0.93;;
20022;SDS011;10172;42.054;24.546;2023-04-29T11:02:54;5.43;;;1.73;;
20022;SDS011;10172;42.054;24.546;2023-04-29T11:05:31;2.90;;;1.20;;
20022;SDS011;10172;42.054;24.546;2023-04-29T11:10:47;1.60;;;1.10;;
20022;SDS011;10172;42.054;24.546;2023-04-29T11:13:20;7.80;;;1.48;;
20022;SDS011;10172;42.054;24.546;2023-04-29T11:15:52;1.23;;;0.73;;
20022;SDS011;10172;42.054;24.546;2023-04-29T11:18:27;0.98;;;0.80;;
20022;SDS011;10172;42.054;24.546;2023-04-29T11:23:34;2.42;;;1.08;;
20022;SDS011;10172;42.054;24.546;2023-04-29T11:26:00;3.65;;;1.20;;
20022;SDS011;10172;42.054;24.546;2023-04-29T11:28:26;1.77;;;1.15;;
20022;SDS011;10172;42.054;24.546;2023-04-29T11:30:52;1.92;;;1.15;;
20022;SDS011;10172;42.054;24.546;2023-04-29T11:33:21;1.85;;;0.88;;
20022;SDS011;10172;42.054;24.546;2023-04-29T11:35:47;3.75;;;1.10;;
20022;SDS011;10172;42.054;24.546;2023-04-29T11:38:13;3.17;;;1.23;;
20022;SDS011;10172;42.054;24.546;2023-04-29T11:40:42;2.47;;;1.33;;
20022;SDS011;10172;42.054;24.546;2023-04-29T11:43:16;6.57;;;2.60;;
20022;SDS011;10172;42.054;24.546;2023-04-29T11:45:45;2.10;;;1.02;;
20022;SDS011;10172;42.054;24.546;2023-04-29T11:48:24;1.85;;;1.00;;
20022;SDS011;10172;42.054;24.546;2023-04-29T11:50:55;1.80;;;1.10;;
20022;SDS011;10172;42.054;24.546;2023-04-29T11:53:23;2.53;;;1.30;;
20022;SDS011;10172;42.054;24.546;2023-04-29T11:55:52;2.05;;;1.05;;
20022;SDS011;10172;42.054;24.546;2023-04-29T11:58:21;1.80;;;1.20;;
20022;SDS011;10172;42.054;24.546;2023-04-29T12:00:48;2.90;;;1.10;;
20022;SDS011;10172;42.054;24.546;2023-04-29T12:05:49;1.17;;;1.02;;
20022;SDS011;10172;42.054;24.546;2023-04-29T12:08:20;3.10;;;1.00;;
20022;SDS011;10172;42.054;24.546;2023-04-29T12:10:46;2.78;;;0.98;;
20022;SDS011;10172;42.054;24.546;2023-04-29T12:13:12;2.63;;;1.00;;
20022;SDS011;10172;42.054;24.546;2023-04-29T12:15:38;1.70;;;0.90;;
20022;SDS011;10172;42.054;24.546;2023-04-29T12:18:03;1.52;;;0.70;;
20022;SDS011;10172;42.054;24.546;2023-04-29T12:20:29;5.25;;;1.10;;
20022;SDS011;10172;42.054;24.546;2023-04-29T12:22:55;2.20;;;1.00;;
20022;SDS011;10172;42.054;24.546;2023-04-29T12:25:23;4.20;;;1.25;;
20022;SDS011;10172;42.054;24.546;2023-04-29T12:27:51;3.97;;;1.20;;
20022;SDS011;10172;42.054;24.546;2023-04-29T12:30:23;1.77;;;0.80;;
20022;SDS011;10172;42.054;24.546;2023-04-29T12:32:50;1.83;;;0.90;;
20022;SDS011;10172;42.054;24.546;2023-04-29T12:35:16;3.30;;;1.27;;
20022;SDS011;10172;42.054;24.546;2023-04-29T12:37:42;1.58;;;1.02;;
20022;SDS011;10172;42.054;24.546;2023-04-29T12:40:12;2.33;;;0.95;;
20022;SDS011;10172;42.054;24.546;2023-04-29T12:42:39;1.40;;;0.80;;
20022;SDS011;10172;42.054;24.546;2023-04-29T12:45:05;1.98;;;0.85;;
20022;SDS011;10172;42.054;24.546;2023-04-29T12:47:31;1.15;;;0.75;;
20022;SDS011;10172;42.054;24.546;2023-04-29T12:50:01;1.55;;;0.85;;
20022;SDS011;10172;42.054;24.546;2023-04-29T12:52:26;1.52;;;1.00;;
20022;SDS011;10172;42.054;24.546;2023-04-29T12:54:52;0.82;;;0.65;;
20022;SDS011;10172;42.054;24.546;2023-04-29T12:57:18;1.48;;;0.90;;
20022;SDS011;10172;42.054;24.546;2023-04-29T12:59:43;1.33;;;0.93;;
20022;SDS011;10172;42.054;24.546;2023-04-29T13:02:08;2.53;;;1.00;;
20022;SDS011;10172;42.054;24.546;2023-04-29T13:04:34;1.17;;;0.80;;
20022;SDS011;10172;42.054;24.546;2023-04-29T13:06:59;4.18;;;1.35;;
20022;SDS011;10172;42.054;24.546;2023-04-29T13:09:26;1.23;;;0.70;;
20022;SDS011;10172;42.054;24.546;2023-04-29T13:11:52;1.80;;;0.77;;
20022;SDS011;10172;42.054;24.546;2023-04-29T13:14:17;1.30;;;0.90;;
20022;SDS011;10172;42.054;24.546;2023-04-29T13:16:43;2.40;;;0.75;;
20022;SDS011;10172;42.054;24.546;2023-04-29T13:19:09;2.20;;;0.85;;
20022;SDS011;10172;42.054;24.546;2023-04-29T13:21:35;1.33;;;0.80;;
20022;SDS011;10172;42.054;24.546;2023-04-29T13:24:00;2.70;;;0.80;;
20022;SDS011;10172;42.054;24.546;2023-04-29T13:26:25;2.05;;;0.98;;
20022;SDS011;10172;42.054;24.546;2023-04-29T13:28:51;1.02;;;0.95;;
20022;SDS011;10172;42.054;24.546;2023-04-29T13:31:17;1.85;;;0.98;;
20022;SDS011;10172;42.054;24.546;2023-04-29T13:33:42;2.22;;;1.10;;
20022;SDS011;10172;42.054;24.546;2023-04-29T13:36:08;1.98;;;1.10;;
20022;SDS011;10172;42.054;24.546;2023-04-29T13:38:34;1.10;;;0.68;;
20022;SDS011;10172;42.054;24.546;2023-04-29T13:40:59;2.58;;;1.00;;
20022;SDS011;10172;42.054;24.546;2023-04-29T13:43:25;1.92;;;0.90;;
20022;SDS011;10172;42.054;24.546;2023-04-29T13:45:50;2.03;;;1.15;;
20022;SDS011;10172;42.054;24.546;2023-04-29T13:48:16;2.22;;;1.00;;
20022;SDS011;10172;42.054;24.546;2023-04-29T13:50:41;0.95;;;0.85;;
20022;SDS011;10172;42.054;24.546;2023-04-29T13:53:09;2.05;;;0.93;;
20022;SDS011;10172;42.054;24.546;2023-04-29T13:55:35;0.93;;;0.75;;
20022;SDS011;10172;42.054;24.546;2023-04-29T13:58:00;0.85;;;0.68;;
20022;SDS011;10172;42.054;24.546;2023-04-29T14:00:26;1.95;;;1.17;;
20022;SDS011;10172;42.054;24.546;2023-04-29T14:02:52;3.10;;;1.10;;
20022;SDS011;10172;42.054;24.546;2023-04-29T14:05:17;1.33;;;1.00;;
20022;SDS011;10172;42.054;24.546;2023-04-29T14:07:43;3.90;;;0.95;;
20022;SDS011;10172;42.054;24.546;2023-04-29T14:10:08;1.77;;;0.82;;
20022;SDS011;10172;42.054;24.546;2023-04-29T14:12:34;3.42;;;1.10;;
20022;SDS011;10172;42.054;24.546;2023-04-29T14:15:00;3.42;;;1.25;;
20022;SDS011;10172;42.054;24.546;2023-04-29T14:17:25;2.67;;;1.13;;
20022;SDS011;10172;42.054;24.546;2023-04-29T14:19:51;1.58;;;0.88;;
20022;SDS011;10172;42.054;24.546;2023-04-29T14:22:17;2.92;;;0.93;;
20022;SDS011;10172;42.054;24.546;2023-04-29T14:24:42;1.88;;;0.93;;
20022;SDS011;10172;42.054;24.546;2023-04-29T14:27:08;1.58;;;0.90;;
20022;SDS011;10172;42.054;24.546;2023-04-29T14:29:33;2.15;;;1.23;;
20022;SDS011;10172;42.054;24.546;2023-04-29T14:31:59;3.13;;;1.02;;
20022;SDS011;10172;42.054;24.546;2023-04-29T14:34:24;5.78;;;1.05;;
20022;SDS011;10172;42.054;24.546;2023-04-29T14:36:50;2.25;;;1.00;;
20022;SDS011;10172;42.054;24.546;2023-04-29T14:39:16;2.28;;;1.02;;
20022;SDS011;10172;42.054;24.546;2023-04-29T14:41:41;1.63;;;0.80;;
20022;SDS011;10172;42.054;24.546;2023-04-29T14:44:07;1.58;;;0.80;;
20022;SDS011;10172;42.054;24.546;2023-04-29T14:46:32;1.45;;;0.98;;
20022;SDS011;10172;42.054;24.546;2023-04-29T14:48:58;1.33;;;0.82;;
20022;SDS011;10172;42.054;24.546;2023-04-29T14:51:24;1.48;;;0.80;;
20022;SDS011;10172;42.054;24.546;2023-04-29T14:53:49;1.35;;;1.00;;
20022;SDS011;10172;42.054;24.546;2023-04-29T14:56:16;1.38;;;0.80;;
20022;SDS011;10172;42.054;24.546;2023-04-29T14:58:42;4.10;;;1.00;;
20022;SDS011;10172;42.054;24.546;2023-04-29T15:01:07;2.63;;;1.08;;
20022;SDS011;10172;42.054;24.546;2023-04-29T15:03:33;0.95;;;0.70;;
20022;SDS011;10172;42.054;24.546;2023-04-29T15:06:01;1.00;;;0.70;;